Time;durP1;ratioP1;P1;durP2;ratioP2;P2;SDS_P1;SDS_P2;PMS_P1;PMS_P2;Temp;Humidity;BMP_temperature;BMP_pressure;BME280_temperature;BME280_humidity;BME280_pressure;Samples;Min_cycle;Max_cycle;Signal;HPM_P1;HPM_P2
2022/03/23 00:02:17;;;;;;;26.67;17.80;;;;;;;6.85;68.54;100629.03;4978770;28;20225;-77
2022/03/23 00:04:43;;;;;;;25.98;19.30;;;;;;;6.79;69.10;100626.53;4994671;28;20205;-77
2022/03/23 00:07:11;;;;;;;25.10;19.13;;;;;;;6.84;69.37;100635.31;4994773;28;20198;-76
2022/03/23 00:09:38;;;;;;;24.10;17.48;;;;;;;6.81;69.71;100635.41;4994495;28;20192;-75
2022/03/23 00:12:05;;;;;;;27.77;17.80;;;;;;;6.83;70.21;100630.88;4993900;28;20224;-76
2022/03/23 00:14:32;;;;;;;30.13;18.83;;;;;;;7.08;68.67;100641.81;4994032;28;20198;-77
2022/03/23 00:16:58;;;;;;;30.00;20.08;;;;;;;7.19;67.95;100636.16;4994238;28;20188;-76
2022/03/23 00:19:25;;;;;;;24.33;17.02;;;;;;;6.88;69.05;100636.97;4993819;28;20196;-76
2022/03/23 00:21:52;;;;;;;25.13;18.23;;;;;;;6.83;69.82;100640.72;4994238;28;20189;-77
2022/03/23 00:24:20;;;;;;;30.30;18.88;;;;;;;6.66;70.28;100633.09;4994572;28;20188;-76
2022/03/23 00:26:46;;;;;;;25.73;18.23;;;;;;;6.71;70.19;100633.84;4994038;28;20227;-76
2022/03/23 00:29:13;;;;;;;29.75;18.30;;;;;;;6.62;71.10;100640.31;4994125;28;20195;-77
2022/03/23 00:31:40;;;;;;;22.15;17.00;;;;;;;6.73;70.92;100636.50;4993800;28;20187;-76
2022/03/23 00:34:06;;;;;;;23.98;18.83;;;;;;;6.83;69.98;100636.22;4993853;28;20278;-76
2022/03/23 00:36:34;;;;;;;26.10;18.33;;;;;;;6.50;71.70;100637.97;4994279;28;20479;-76
2022/03/23 00:39:00;;;;;;;25.95;17.83;;;;;;;6.44;72.31;100646.13;4994022;28;20299;-76
2022/03/23 00:41:28;;;;;;;29.65;18.60;;;;;;;6.36;73.00;100643.66;4993940;28;20183;-76
2022/03/23 00:43:55;;;;;;;23.70;15.90;;;;;;;6.37;73.19;100642.72;4993205;28;20192;-76
2022/03/23 00:46:23;;;;;;;27.17;18.95;;;;;;;6.36;73.37;100645.47;4993978;28;20674;-76
2022/03/23 00:48:49;;;;;;;26.20;18.35;;;;;;;6.60;72.35;100652.00;4993143;28;20195;-76
2022/03/23 00:51:16;;;;;;;26.80;18.42;;;;;;;6.53;72.57;100642.34;4993815;28;20622;-76
2022/03/23 00:53:42;;;;;;;25.00;18.50;;;;;;;6.24;74.00;100647.50;4993434;28;20559;-76
2022/03/23 00:56:11;;;;;;;27.83;17.17;;;;;;;6.21;74.12;100650.25;4993382;28;20186;-76
2022/03/23 00:58:39;;;;;;;23.95;18.38;;;;;;;6.24;74.33;100649.28;4992764;28;20188;-77
2022/03/23 01:01:05;;;;;;;21.85;18.30;;;;;;;6.36;73.55;100650.81;4993217;28;20237;-76
2022/03/23 01:03:32;;;;;;;27.70;18.55;;;;;;;6.23;74.41;100644.88;4993497;28;20194;-77
2022/03/23 01:05:59;;;;;;;24.45;17.13;;;;;;;6.23;74.78;100650.22;4993484;28;20635;-76
2022/03/23 01:08:25;;;;;;;23.85;16.27;;;;;;;6.12;75.46;100645.09;4993581;28;20195;-76
2022/03/23 01:10:52;;;;;;;23.70;16.67;;;;;;;6.18;75.62;100641.44;4993192;28;20203;-76
2022/03/23 01:13:18;;;;;;;22.50;16.27;;;;;;;6.21;75.50;100644.03;4992237;28;20207;-76
2022/03/23 01:15:46;;;;;;;24.48;16.98;;;;;;;6.01;76.74;100639.13;4993114;28;20569;-76
2022/03/23 01:18:13;;;;;;;22.15;16.20;;;;;;;5.94;77.26;100643.72;4993320;28;20209;-77
2022/03/23 01:20:40;;;;;;;21.13;16.88;;;;;;;6.04;77.18;100644.41;4993446;28;20282;-76
2022/03/23 01:23:06;;;;;;;22.63;16.17;;;;;;;6.05;75.91;100644.38;4992551;28;20186;-76
2022/03/23 01:25:33;;;;;;;26.98;17.90;;;;;;;6.03;75.16;100643.53;4993090;28;20610;-76
2022/03/23 01:27:59;;;;;;;26.08;16.95;;;;;;;5.92;76.47;100641.97;4993251;28;20538;-76
2022/03/23 01:30:26;;;;;;;25.63;17.30;;;;;;;6.11;75.21;100638.00;4992568;28;20213;-76
2022/03/23 01:32:54;;;;;;;24.45;16.77;;;;;;;6.22;75.07;100635.09;4992695;28;20215;-76
2022/03/23 01:35:21;;;;;;;21.30;16.58;;;;;;;6.38;74.20;100636.47;4993384;28;20191;-76
2022/03/23 01:37:48;;;;;;;20.02;15.77;;;;;;;6.28;75.12;100639.41;4992964;28;20645;-77
2022/03/23 01:40:14;;;;;;;27.52;17.33;;;;;;;6.00;76.70;100632.91;4992191;28;20205;-76
2022/03/23 01:42:41;;;;;;;21.10;16.17;;;;;;;5.95;77.81;100631.28;4992023;28;20721;-76
2022/03/23 01:45:10;;;;;;;31.88;18.13;;;;;;;5.91;78.38;100633.09;4993065;28;20192;-76
2022/03/23 01:47:37;;;;;;;21.27;16.65;;;;;;;5.83;78.72;100632.38;4992417;28;20205;-76
2022/03/23 01:50:07;;;;;;;23.30;16.42;;;;;;;5.66;80.34;100630.06;4992904;28;20537;-76
2022/03/23 01:52:34;;;;;;;23.83;16.52;;;;;;;5.47;81.56;100637.56;4992319;28;20221;-76
2022/03/23 01:55:01;;;;;;;24.52;16.45;;;;;;;5.54;81.59;100631.22;4992553;28;20187;-76
2022/03/23 01:57:30;;;;;;;20.67;15.93;;;;;;;5.57;81.42;100628.47;4991602;28;20199;-76
2022/03/23 01:59:56;;;;;;;25.08;15.55;;;;;;;5.59;81.45;100632.00;4978193;28;20199;-76
2022/03/23 02:02:23;;;;;;;24.33;16.92;;;;;;;5.56;82.02;100634.75;4989960;28;21665;-76
2022/03/23 02:04:50;;;;;;;21.42;16.60;;;;;;;5.64;81.33;100626.56;4992760;28;20662;-76
2022/03/23 02:07:18;;;;;;;25.05;17.63;;;;;;;5.50;82.18;100623.31;4992444;28;20202;-77
2022/03/23 02:09:44;;;;;;;29.20;18.67;;;;;;;5.52;82.27;100629.50;4973045;28;20189;-76
2022/03/23 02:12:12;;;;;;;22.50;15.80;;;;;;;5.67;80.82;100626.47;4973091;28;20219;-76
2022/03/23 02:14:39;;;;;;;23.85;17.30;;;;;;;5.54;81.73;100625.88;4992057;28;20626;-76
2022/03/23 02:17:06;;;;;;;22.88;17.20;;;;;;;5.68;81.09;100628.25;4992488;28;20213;-76
2022/03/23 02:19:33;;;;;;;26.38;17.70;;;;;;;5.78;80.28;100623.56;4991753;28;20230;-77
2022/03/23 02:22:02;;;;;;;23.23;16.70;;;;;;;5.69;80.53;100626.44;4992219;28;20558;-76
2022/03/23 02:24:30;;;;;;;20.48;15.90;;;;;;;5.66;81.10;100634.53;4992415;28;20199;-76
2022/03/23 02:26:58;;;;;;;24.15;17.70;;;;;;;5.65;80.89;100636.31;4992369;28;20883;-78
2022/03/23 02:29:29;;;;;;;22.83;17.90;;;;;;;5.46;81.96;100629.63;4992288;28;20270;-77
2022/03/23 02:31:56;;;;;;;26.50;17.52;;;;;;;5.63;81.27;100624.78;4982603;28;20206;-77
2022/03/23 02:34:23;;;;;;;24.98;17.95;;;;;;;5.61;80.90;100630.16;4991871;28;20293;-77
2022/03/23 02:36:50;;;;;;;29.45;17.60;;;;;;;5.61;81.28;100634.66;4992322;28;20213;-77
2022/03/23 02:39:18;;;;;;;23.63;17.95;;;;;;;5.40;82.69;100626.16;4992171;28;20195;-77
2022/03/23 02:41:45;;;;;;;20.75;15.57;;;;;;;5.30;83.66;100637.06;4992433;28;20194;-77
2022/03/23 02:44:14;;;;;;;23.27;16.85;;;;;;;5.27;83.80;100637.09;4991827;28;20217;-77
2022/03/23 02:46:41;;;;;;;29.35;18.17;;;;;;;5.23;84.20;100633.63;4992429;28;20623;-77
2022/03/23 02:49:08;;;;;;;26.45;18.13;;;;;;;5.11;85.18;100625.84;4991957;28;20191;-77
2022/03/23 02:51:34;;;;;;;29.42;17.65;;;;;;;4.91;86.70;100631.59;4991927;28;20278;-77
2022/03/23 03:02:37;;;;;;;24.33;17.25;;;;;;;5.18;85.65;100630.19;4931909;28;20198;-77
2022/03/23 03:05:04;;;;;;;21.25;16.52;;;;;;;5.17;85.40;100625.72;4972120;28;20628;-77
2022/03/23 03:08:44;;;;;;;22.83;16.70;;;;;;;5.10;85.84;100640.13;4954372;28;20699;-77
2022/03/23 03:10:19;;;;;;;23.92;15.60;;;;;;;5.12;85.95;100633.84;4971687;28;20262;-77
2022/03/23 03:12:48;;;;;;;22.70;16.40;;;;;;;4.97;85.64;100640.31;4973842;28;20681;-76
2022/03/23 03:15:15;;;;;;;26.17;15.77;;;;;;;4.91;86.14;100650.25;4976292;28;20196;-77
2022/03/23 03:17:42;;;;;;;22.55;16.52;;;;;;;4.87;86.81;100638.75;4976101;28;20188;-77
2022/03/23 03:20:10;;;;;;;23.48;16.88;;;;;;;4.90;87.00;100641.34;4976145;28;20191;-77
2022/03/23 03:22:38;;;;;;;21.40;15.77;;;;;;;4.86;86.76;100646.78;4976076;28;20733;-77
2022/03/23 03:25:06;;;;;;;24.50;17.58;;;;;;;4.93;87.06;100653.75;4976159;28;20538;-78
2022/03/23 03:27:35;;;;;;;21.13;16.42;;;;;;;5.02;86.27;100653.63;4975501;28;20206;-77
2022/03/23 03:30:04;;;;;;;26.00;17.42;;;;;;;4.89;87.03;100650.28;4975200;28;20203;-77
2022/03/23 03:32:30;;;;;;;25.85;18.05;;;;;;;4.89;86.77;100657.41;4975587;28;20198;-77
2022/03/23 03:34:57;;;;;;;22.60;17.00;;;;;;;4.63;88.79;100655.19;4975025;28;20198;-77
2022/03/23 03:37:24;;;;;;;27.92;17.23;;;;;;;4.71;88.54;100659.50;4976053;28;20196;-77
2022/03/23 03:39:50;;;;;;;23.15;17.05;;;;;;;4.38;90.58;100660.91;4975752;28;20218;-77
2022/03/23 03:42:18;;;;;;;21.77;17.08;;;;;;;4.52;90.34;100661.59;4975776;28;20615;-77
2022/03/23 03:44:45;;;;;;;26.17;18.60;;;;;;;4.53;90.27;100660.69;4973682;28;20187;-77
2022/03/23 03:47:13;;;;;;;24.48;18.15;;;;;;;4.43;91.58;100668.84;4974775;28;20215;-77
2022/03/23 03:49:40;;;;;;;32.67;17.83;;;;;;;4.41;91.89;100667.97;4975574;28;20200;-77
2022/03/23 03:52:07;;;;;;;24.23;17.05;;;;;;;4.43;91.84;100669.72;4975753;28;20614;-77
2022/03/23 03:54:33;;;;;;;27.40;17.92;;;;;;;4.29;93.32;100666.41;4975246;28;20670;-77
2022/03/23 03:57:00;;;;;;;26.83;18.58;;;;;;;4.34;92.86;100669.88;4974900;28;20195;-77
2022/03/23 03:59:26;;;;;;;22.05;17.40;;;;;;;4.34;92.84;100672.53;4975067;28;20198;-77
2022/03/23 04:01:53;;;;;;;23.23;18.13;;;;;;;4.48;91.60;100673.22;4990043;28;20231;-77
2022/03/23 04:04:21;;;;;;;24.08;16.15;;;;;;;4.53;91.35;100676.69;4994633;28;20560;-77
2022/03/23 04:06:47;;;;;;;24.67;18.02;;;;;;;4.58;90.66;100671.28;4994637;28;20298;-78
2022/03/23 04:09:14;;;;;;;24.67;17.30;;;;;;;4.66;90.07;100681.81;4994961;28;20190;-77
2022/03/23 04:11:41;;;;;;;23.65;17.65;;;;;;;4.47;90.77;100675.91;4994846;28;20555;-78
2022/03/23 04:14:07;;;;;;;23.63;17.45;;;;;;;4.30;91.93;100682.38;4993770;28;20298;-77
2022/03/23 04:16:34;;;;;;;22.77;16.88;;;;;;;4.24;93.05;100677.13;4994049;28;20190;-77
2022/03/23 04:19:01;;;;;;;31.58;18.85;;;;;;;4.14;94.16;100683.53;4994463;28;20217;-75
2022/03/23 04:21:29;;;;;;;29.15;19.50;;;;;;;3.90;95.73;100684.72;4994132;28;20194;-76
2022/03/23 04:23:55;;;;;;;30.65;18.60;;;;;;;3.92;96.18;100681.13;4992654;28;20278;-77
2022/03/23 04:26:22;;;;;;;31.90;19.83;;;;;;;4.10;94.42;100684.47;4994594;28;20203;-77
2022/03/23 04:28:48;;;;;;;30.15;19.77;;;;;;;4.01;95.32;100682.81;4993819;28;20188;-77
2022/03/23 04:31:15;;;;;;;27.63;19.23;;;;;;;4.18;94.53;100690.53;4994252;28;20326;-77
2022/03/23 04:33:42;;;;;;;27.85;18.63;;;;;;;4.14;94.31;100692.41;4993320;28;20218;-75
2022/03/23 04:36:09;;;;;;;26.27;18.02;;;;;;;4.21;93.73;100690.53;4993643;28;20670;-76
2022/03/23 04:38:37;;;;;;;25.02;18.63;;;;;;;3.91;95.86;100694.47;4993219;28;20195;-76
2022/03/23 04:41:04;;;;;;;28.77;18.42;;;;;;;3.85;96.92;100695.44;4994121;28;20652;-76
2022/03/23 04:43:30;;;;;;;29.35;18.52;;;;;;;3.94;96.59;100700.66;4993682;28;20193;-76
2022/03/23 04:45:57;;;;;;;24.48;18.05;;;;;;;3.89;96.15;100701.59;4993826;28;20543;-78
2022/03/23 04:48:24;;;;;;;31.67;18.08;;;;;;;3.88;96.88;100698.06;4993593;28;20197;-78
2022/03/23 04:50:50;;;;;;;29.80;18.95;;;;;;;3.78;97.75;100696.44;4993455;28;20283;-78
2022/03/23 04:53:18;;;;;;;28.70;19.40;;;;;;;3.86;97.69;100702.53;4993574;28;20682;-76
2022/03/23 04:55:45;;;;;;;28.10;17.55;;;;;;;3.81;97.98;100708.84;4994090;28;20192;-77
2022/03/23 04:58:12;;;;;;;29.55;18.67;;;;;;;3.81;97.28;100709.72;4992452;28;20211;-77
2022/03/23 05:00:40;;;;;;;28.33;18.05;;;;;;;3.63;98.94;100708.16;4993078;28;20316;-76
2022/03/23 05:03:07;;;;;;;26.90;19.38;;;;;;;3.74;98.25;100705.38;4993037;28;20206;-77
2022/03/23 05:05:34;;;;;;;28.23;19.55;;;;;;;3.72;98.10;100696.50;4993891;28;20541;-77
2022/03/23 05:08:00;;;;;;;26.25;18.70;;;;;;;3.63;99.04;100707.28;4993205;28;20198;-78
2022/03/23 05:10:28;;;;;;;24.92;18.75;;;;;;;3.69;98.48;100705.41;4993504;28;20240;-77
2022/03/23 05:12:56;;;;;;;26.05;19.13;;;;;;;3.79;97.97;100710.63;4992726;28;20194;-77
2022/03/23 05:15:22;;;;;;;27.52;19.33;;;;;;;3.66;98.56;100707.22;4993380;28;20215;-76
2022/03/23 05:17:49;;;;;;;27.83;18.42;;;;;;;3.50;100.00;100710.06;4993183;28;20665;-76
2022/03/23 05:20:18;;;;;;;29.25;18.10;;;;;;;3.62;99.84;100700.16;4993357;28;20196;-76
2022/03/23 05:22:44;;;;;;;30.42;20.38;;;;;;;3.52;100.00;100704.72;4992521;28;20204;-76
2022/03/23 05:25:13;;;;;;;34.70;19.20;;;;;;;3.47;100.00;100709.25;4993106;28;20552;-76
2022/03/23 05:27:41;;;;;;;27.77;18.17;;;;;;;3.61;100.00;100712.59;4992103;28;20208;-76
2022/03/23 05:30:12;;;;;;;28.15;19.13;;;;;;;3.77;98.27;100705.31;4991986;28;20197;-76
2022/03/23 05:32:39;;;;;;;29.17;19.42;;;;;;;3.74;98.25;100706.25;4992437;28;20280;-76
2022/03/23 05:35:08;;;;;;;29.42;20.15;;;;;;;3.87;97.67;100706.09;4992436;28;20217;-76
2022/03/23 05:37:34;;;;;;;29.85;19.50;;;;;;;4.08;97.17;100712.91;4992543;28;20552;-76
2022/03/23 05:40:02;;;;;;;30.33;17.90;;;;;;;4.06;96.61;100720.94;4992753;28;20524;-76
2022/03/23 05:42:29;;;;;;;25.85;19.15;;;;;;;4.10;97.13;100719.13;4992151;28;20207;-76
2022/03/23 05:44:55;;;;;;;34.50;19.40;;;;;;;3.90;98.82;100717.59;4992498;28;20183;-76
2022/03/23 05:47:24;;;;;;;29.88;19.17;;;;;;;3.92;99.28;100729.09;4992071;28;20187;-76
2022/03/23 05:49:50;;;;;;;31.30;19.98;;;;;;;4.15;97.25;100722.59;4991511;28;20197;-76
2022/03/23 05:52:17;;;;;;;26.30;19.35;;;;;;;4.07;96.44;100730.69;4992686;28;20226;-76
2022/03/23 05:54:44;;;;;;;27.70;19.60;;;;;;;4.12;97.29;100735.97;4992625;28;20238;-76
2022/03/23 05:57:10;;;;;;;27.55;19.40;;;;;;;4.07;96.37;100729.78;4992140;28;20286;-76
2022/03/23 05:59:37;;;;;;;28.85;19.05;;;;;;;4.10;97.12;100737.78;4992315;28;20553;-77
2022/03/23 06:02:04;;;;;;;25.23;18.55;;;;;;;4.15;96.58;100743.91;4991875;28;20696;-77
2022/03/23 06:04:32;;;;;;;24.77;18.90;;;;;;;4.06;96.93;100746.69;4990908;28;20211;-78
2022/03/23 06:06:58;;;;;;;27.58;18.48;;;;;;;4.07;97.33;100749.38;4992553;28;20196;-77
2022/03/23 06:09:25;;;;;;;26.40;18.65;;;;;;;4.05;96.98;100744.91;4992199;28;20194;-77
2022/03/23 06:11:52;;;;;;;31.08;20.15;;;;;;;4.08;96.58;100742.25;4992279;28;20670;-77
2022/03/23 06:14:18;;;;;;;27.42;18.02;;;;;;;4.25;94.59;100734.91;4988929;28;20210;-77
2022/03/23 06:16:45;;;;;;;34.50;20.15;;;;;;;4.17;95.77;100745.66;4972995;28;20282;-77
2022/03/23 06:19:13;;;;;;;30.08;20.27;;;;;;;4.02;97.05;100737.84;4972903;28;20292;-77
2022/03/23 06:21:42;;;;;;;30.85;20.30;;;;;;;4.12;97.45;100743.97;4972572;28;20195;-77
2022/03/23 06:24:09;;;;;;;30.50;20.92;;;;;;;4.28;95.48;100750.84;4972656;28;20186;-77
2022/03/23 06:26:35;;;;;;;33.88;20.60;;;;;;;4.51;93.28;100749.63;4972458;28;20216;-77
2022/03/23 06:29:02;;;;;;;28.40;19.48;;;;;;;4.55;91.84;100743.34;4972661;28;20519;-78
2022/03/23 06:31:28;;;;;;;35.53;21.08;;;;;;;4.52;92.18;100754.97;4972713;28;20564;-76
2022/03/23 06:33:55;;;;;;;32.30;23.70;;;;;;;4.65;92.20;100750.28;4972379;28;20305;-78
2022/03/23 06:36:21;;;;;;;31.83;21.35;;;;;;;4.72;92.27;100746.63;4979200;28;20202;-76
2022/03/23 06:38:50;;;;;;;34.90;20.23;;;;;;;4.68;92.07;100752.94;4982647;28;20195;-76
2022/03/23 06:41:16;;;;;;;30.90;20.73;;;;;;;4.79;92.21;100752.75;4991448;28;20197;-78
2022/03/23 06:43:43;;;;;;;29.15;19.48;;;;;;;4.85;91.19;100751.78;4983145;28;20197;-77
2022/03/23 06:46:10;;;;;;;31.98;20.83;;;;;;;4.94;90.35;100751.63;4989491;28;20908;-78
2022/03/23 06:48:36;;;;;;;28.20;21.20;;;;;;;4.99;90.92;100752.41;4985695;28;20535;-77
2022/03/23 06:51:04;;;;;;;33.22;20.83;;;;;;;5.06;89.76;100751.41;4987859;28;20189;-76
2022/03/23 06:53:31;;;;;;;33.03;21.42;;;;;;;4.97;90.06;100755.09;4985797;28;20210;-76
2022/03/23 06:55:59;;;;;;;25.75;20.15;;;;;;;5.11;89.65;100754.91;4985290;28;20191;-77
2022/03/23 06:58:26;;;;;;;37.05;21.60;;;;;;;5.09;89.75;100756.72;4976405;28;20600;-77
2022/03/23 07:00:54;;;;;;;28.75;20.45;;;;;;;5.11;89.23;100756.66;4990687;28;20310;-78
2022/03/23 07:03:21;;;;;;;26.45;19.33;;;;;;;5.21;88.24;100758.28;4983805;28;20647;-77
2022/03/23 07:05:48;;;;;;;30.65;22.90;;;;;;;5.34;87.42;100757.16;4984957;28;20195;-78
2022/03/23 07:11:06;;;;;;;30.50;21.30;;;;;;;5.51;86.11;100751.47;4985189;28;20195;-78
2022/03/23 07:13:33;;;;;;;32.60;21.77;;;;;;;5.61;85.08;100760.22;4992505;28;20191;-78
2022/03/23 07:16:00;;;;;;;27.65;20.73;;;;;;;5.80;83.90;100763.41;4981780;28;20210;-77
2022/03/23 07:18:27;;;;;;;31.27;21.80;;;;;;;5.95;83.59;100751.56;4984386;28;20191;-77
2022/03/23 07:20:53;;;;;;;30.40;20.98;;;;;;;5.94;82.26;100756.00;4992362;28;20199;-77
2022/03/23 07:23:20;;;;;;;31.48;21.42;;;;;;;6.12;81.37;100751.19;4980656;28;20206;-77
2022/03/23 07:25:47;;;;;;;31.02;21.80;;;;;;;6.24;79.42;100764.28;4991753;28;20203;-78
2022/03/23 07:28:15;;;;;;;30.70;22.08;;;;;;;6.34;79.85;100763.19;4985775;28;20198;-77
2022/03/23 07:30:42;;;;;;;31.42;21.60;;;;;;;6.41;78.42;100764.81;4987020;28;20187;-76
2022/03/23 07:33:09;;;;;;;32.08;22.30;;;;;;;6.54;77.44;100756.53;4990861;28;20539;-78
2022/03/23 07:35:35;;;;;;;34.35;22.50;;;;;;;6.75;76.41;100764.03;4992519;28;20215;-77
2022/03/23 07:38:02;;;;;;;34.90;21.20;;;;;;;6.96;74.69;100769.78;4980290;28;20192;-77
2022/03/23 07:40:28;;;;;;;36.33;22.98;;;;;;;6.96;73.34;100765.31;4987858;28;20668;-78
2022/03/23 07:42:55;;;;;;;28.77;20.50;;;;;;;7.06;71.81;100760.63;4986688;28;20206;-77
2022/03/23 07:45:24;;;;;;;31.52;21.70;;;;;;;7.10;72.33;100767.66;4994009;28;20283;-78
2022/03/23 07:47:50;;;;;;;34.63;22.85;;;;;;;7.18;71.94;100759.44;4994101;28;20206;-76
2022/03/23 07:50:17;;;;;;;28.55;21.38;;;;;;;7.48;70.96;100764.00;4994222;28;20198;-77
2022/03/23 07:52:43;;;;;;;30.30;21.70;;;;;;;7.68;69.43;100755.38;4992600;28;20199;-77
2022/03/23 07:55:11;;;;;;;33.92;21.77;;;;;;;7.71;69.43;100758.00;4994142;28;20556;-78
2022/03/23 07:57:37;;;;;;;34.53;22.67;;;;;;;7.87;68.77;100758.44;4994031;28;20533;-78
2022/03/23 08:00:05;;;;;;;31.27;22.33;;;;;;;8.08;67.55;100769.47;4992471;28;20205;-79
2022/03/23 08:02:33;;;;;;;33.03;24.30;;;;;;;8.24;66.68;100764.53;4992127;28;20218;-78
2022/03/23 08:05:00;;;;;;;34.00;23.50;;;;;;;8.37;66.13;100757.88;4993419;28;20202;-77
2022/03/23 08:07:26;;;;;;;33.88;23.48;;;;;;;8.64;64.55;100764.22;4993981;28;20631;-77
2022/03/23 08:09:53;;;;;;;32.35;23.17;;;;;;;8.91;63.24;100758.88;4993901;28;20195;-78
2022/03/23 08:12:20;;;;;;;40.90;22.50;;;;;;;9.17;60.79;100766.94;4994078;28;20196;-76
2022/03/23 08:14:46;;;;;;;31.83;23.30;;;;;;;9.33;59.79;100767.31;4993158;28;20227;-81
2022/03/23 08:17:13;;;;;;;36.13;23.55;;;;;;;9.36;59.88;100767.22;4990318;28;20200;-78
2022/03/23 08:19:41;;;;;;;37.40;23.67;;;;;;;9.38;59.19;100768.03;4993463;28;20204;-77
2022/03/23 08:22:09;;;;;;;29.98;21.60;;;;;;;9.39;58.79;100758.16;4993866;28;20551;-79
2022/03/23 08:24:35;;;;;;;38.55;23.98;;;;;;;9.57;58.60;100770.09;4993859;28;20194;-79
2022/03/23 08:27:02;;;;;;;46.38;27.67;;;;;;;9.92;56.98;100762.53;4993125;28;20284;-80
2022/03/23 08:29:28;;;;;;;42.72;24.55;;;;;;;9.92;56.02;100751.78;4993100;28;20280;-79
2022/03/23 08:31:55;;;;;;;29.85;21.75;;;;;;;10.31;53.83;100762.00;4993277;28;20185;-80
2022/03/23 08:34:21;;;;;;;35.75;22.90;;;;;;;10.34;53.33;100769.97;4993057;28;20215;-75
2022/03/23 08:36:49;;;;;;;34.33;22.20;;;;;;;10.28;52.94;100764.78;4992519;28;20224;-76
2022/03/23 08:39:16;;;;;;;38.22;23.58;;;;;;;10.30;53.67;100765.66;4991273;28;20202;-78
2022/03/23 08:41:43;;;;;;;35.38;24.35;;;;;;;10.58;52.23;100760.03;4991972;28;20211;-78
2022/03/23 08:44:10;;;;;;;30.13;22.15;;;;;;;10.81;51.55;100761.84;4992070;28;20651;-78
2022/03/23 08:46:36;;;;;;;36.60;23.15;;;;;;;10.79;51.42;100758.31;4992992;28;20191;-76
2022/03/23 08:49:03;;;;;;;32.67;22.67;;;;;;;10.81;51.72;100756.44;4993197;28;20198;-78
2022/03/23 08:51:29;;;;;;;35.50;23.63;;;;;;;11.05;50.86;100754.53;4992280;28;20202;-78
2022/03/23 08:53:57;;;;;;;38.10;24.15;;;;;;;11.03;50.88;100759.13;4993159;28;20553;-77
2022/03/23 08:56:25;;;;;;;34.78;23.90;;;;;;;11.27;50.13;100741.03;4992595;28;20227;-78
2022/03/23 08:58:53;;;;;;;36.85;23.92;;;;;;;11.71;48.85;100748.13;4992907;28;20222;-78
2022/03/23 09:01:19;;;;;;;32.33;24.10;;;;;;;11.81;48.42;100744.09;4992454;28;20238;-79
2022/03/23 09:03:46;;;;;;;29.30;22.30;;;;;;;12.15;46.71;100743.44;4991605;28;20558;-79
2022/03/23 09:06:13;;;;;;;33.85;23.27;;;;;;;12.31;46.02;100736.38;4992741;28;20203;-78
2022/03/23 09:08:39;;;;;;;34.22;23.77;;;;;;;12.56;45.96;100742.44;4992463;28;20689;-77
2022/03/23 09:11:07;;;;;;;33.42;23.30;;;;;;;12.59;45.31;100735.03;4991899;28;20199;-77
2022/03/23 09:13:34;;;;;;;40.25;24.33;;;;;;;12.71;44.61;100737.16;4992329;28;20206;-79
2022/03/23 09:16:01;;;;;;;33.63;22.77;;;;;;;12.99;44.05;100741.19;4990679;28;20208;-81
2022/03/23 09:18:28;;;;;;;33.95;22.88;;;;;;;13.10;42.93;100741.53;4991822;28;20298;-78
2022/03/23 09:20:56;;;;;;;31.30;22.55;;;;;;;13.29;43.05;100736.09;4992746;28;20198;-78
2022/03/23 09:23:23;;;;;;;35.67;22.67;;;;;;;13.49;42.77;100740.47;4992849;28;20188;-77
2022/03/23 09:25:51;;;;;;;28.88;22.17;;;;;;;13.52;43.10;100737.63;4992502;28;20210;-79
2022/03/23 09:28:19;;;;;;;29.75;21.52;;;;;;;13.72;42.26;100732.97;4992842;28;20596;-77
2022/03/23 09:30:46;;;;;;;31.38;21.88;;;;;;;13.86;42.26;100732.22;4992288;28;20204;-78
2022/03/23 09:33:12;;;;;;;30.50;21.63;;;;;;;14.04;41.67;100731.25;4992141;28;20286;-79
2022/03/23 09:35:39;;;;;;;33.88;23.85;;;;;;;14.31;41.30;100727.97;4992249;28;20219;-78
2022/03/23 09:38:05;;;;;;;31.25;21.08;;;;;;;14.35;41.23;100725.00;4991404;28;20211;-78
2022/03/23 09:40:33;;;;;;;31.65;23.90;;;;;;;14.35;41.27;100729.56;4992041;28;20241;-78
2022/03/23 09:43:01;;;;;;;34.80;22.27;;;;;;;14.74;40.26;100733.69;4991055;28;20196;-79
2022/03/23 09:45:39;;;;;;;34.42;22.90;;;;;;;14.79;40.38;100732.50;4992238;28;20197;-79
2022/03/23 09:48:09;;;;;;;36.17;23.10;;;;;;;14.93;40.15;100725.41;4991969;28;20197;-78
2022/03/23 09:50:37;;;;;;;32.78;23.65;;;;;;;15.04;40.08;100724.75;4990034;28;20201;-79
2022/03/23 09:53:04;;;;;;;31.58;22.73;;;;;;;15.14;39.51;100724.13;4987989;28;20286;-77
2022/03/23 09:55:31;;;;;;;38.30;22.75;;;;;;;15.27;39.20;100728.81;4991298;28;20211;-80
2022/03/23 09:57:59;;;;;;;29.17;21.88;;;;;;;15.50;39.24;100731.03;4992040;28;20639;-78
2022/03/23 10:00:27;;;;;;;30.33;21.95;;;;;;;15.75;38.40;100725.00;4995969;28;20229;-79
2022/03/23 10:03:38;;;;;;;26.33;19.05;;;;;;;15.69;38.17;100721.75;4992606;28;20621;-78
2022/03/23 10:06:34;;;;;;;29.77;19.95;;;;;;;15.96;37.17;100722.75;4991601;28;20206;-79
2022/03/23 10:09:16;;;;;;;28.15;20.70;;;;;;;16.12;37.18;100721.81;4991746;28;20200;-77
2022/03/23 10:12:50;;;;;;;27.88;18.60;;;;;;;16.17;36.91;100728.72;4993705;28;20209;-77
2022/03/23 10:16:04;;;;;;;26.95;20.17;;;;;;;16.34;36.56;100719.47;4992038;28;20214;-78
2022/03/23 10:18:55;;;;;;;33.60;18.17;;;;;;;16.34;36.28;100719.47;4991554;28;20194;-79
2022/03/23 10:21:25;;;;;;;24.02;17.50;;;;;;;16.43;35.75;100718.00;4970653;28;20221;-79
2022/03/23 10:24:30;;;;;;;23.35;16.88;;;;;;;16.49;35.50;100722.19;4991394;28;20188;-79
2022/03/23 10:26:58;;;;;;;27.73;17.85;;;;;;;16.55;35.53;100719.94;4972275;28;20267;-78
2022/03/23 10:29:25;;;;;;;26.77;16.35;;;;;;;16.41;35.13;100715.38;4977911;28;20665;-76
2022/03/23 10:32:07;;;;;;;24.98;17.45;;;;;;;16.59;34.91;100712.44;4991780;28;20210;-77
2022/03/23 10:34:45;;;;;;;30.85;16.45;;;;;;;16.80;34.59;100707.44;4991213;28;20194;-79
2022/03/23 10:37:15;;;;;;;25.27;17.65;;;;;;;16.73;34.69;100706.94;4991460;28;20191;-80
2022/03/23 10:39:43;;;;;;;25.83;18.70;;;;;;;16.82;34.67;100703.69;4991699;28;20649;-79
2022/03/23 10:42:13;;;;;;;22.58;16.08;;;;;;;16.68;34.69;100700.94;4991592;28;20199;-79
2022/03/23 10:44:41;;;;;;;21.15;16.02;;;;;;;16.88;34.48;100707.81;4992078;28;20682;-79
2022/03/23 10:47:08;;;;;;;28.27;17.15;;;;;;;17.13;34.40;100692.56;4991077;28;20238;-79
2022/03/23 10:49:37;;;;;;;22.92;16.85;;;;;;;17.27;33.62;100685.19;4991242;28;20606;-80
2022/03/23 10:52:15;;;;;;;26.75;16.48;;;;;;;17.35;33.44;100690.13;4991887;28;20295;-79
2022/03/23 10:54:54;;;;;;;26.10;16.08;;;;;;;17.40;33.36;100687.94;4991332;28;20199;-79
2022/03/23 10:57:21;;;;;;;23.15;16.15;;;;;;;17.33;33.25;100686.63;4991153;28;20194;-78
2022/03/23 10:59:48;;;;;;;23.23;16.33;;;;;;;17.36;32.96;100677.38;4991168;28;20273;-79
2022/03/23 11:02:16;;;;;;;22.90;16.80;;;;;;;17.53;33.02;100674.34;4991340;28;20235;-79
2022/03/23 11:04:47;;;;;;;23.58;16.75;;;;;;;17.62;32.69;100678.28;4991508;28;20270;-79
2022/03/23 11:07:26;;;;;;;22.88;15.20;;;;;;;17.43;33.22;100675.97;4991675;28;20535;-80
2022/03/23 11:18:07;;;;;;;24.73;17.02;;;;;;;17.24;32.92;100670.94;4990861;28;20226;-78
2022/03/23 11:20:46;;;;;;;39.30;26.40;;;;;;;17.32;33.17;100670.38;4990835;28;20207;-78
2022/03/23 11:23:20;;;;;;;28.58;17.83;;;;;;;17.41;32.77;100661.56;4991314;28;20188;-79
2022/03/23 11:25:48;;;;;;;22.45;16.42;;;;;;;17.25;32.79;100665.38;4990662;28;20277;-77
2022/03/23 11:28:16;;;;;;;22.98;15.60;;;;;;;17.55;32.54;100656.06;4990726;28;20208;-80
2022/03/23 11:30:43;;;;;;;30.80;17.15;;;;;;;17.63;32.53;100659.09;4990907;28;20528;-79
2022/03/23 11:33:11;;;;;;;23.52;15.48;;;;;;;17.54;32.21;100657.03;4991457;28;20632;-78
2022/03/23 11:35:44;;;;;;;27.02;16.17;;;;;;;17.57;32.15;100640.47;4993526;28;20234;-78
2022/03/23 11:38:12;;;;;;;26.75;17.85;;;;;;;17.71;32.23;100642.22;4994538;28;20287;-78
2022/03/23 11:40:41;;;;;;;26.33;17.50;;;;;;;17.90;31.81;100645.38;4994269;28;20195;-79